Leviticus — WDC2712 — position and weather

sailwx.info

Track history (hours):
 
Tides and Currents Weather Stations Pressure Air Temp Water Temp Dewpoint Dewpoint Depression Visibility Wind Speed Wind Dir Waves Ship Positions

Leviticus

Owner: Kirby Inland Marine, LP, Houston, TX. More information available from US FCC via Universal Licensing System and Coast Guard Vessel Documentation Center.

Last reported at 2016-Aug-22 12:03 UTC. Time now 2016-Sep-26 13:53 UTC.
Position N 32°35' W 091°07'.
Warning: this ship's position is 35 days out of date.

Length 12 m.

Type: Other ship. MMSI: 366996690.

Date/timePositionNaut miles runAvg speedWind from/ knotsBaromVisibWave heightAir tempDewpointWater temp
2016-Aug-22 12:03N 32°35' W 091°07'6 4.2
2016-Aug-22 10:32N 32°29' W 091°07'4 4.4
2016-Aug-22 09:33N 32°26' W 091°02'4 3.6
2016-Aug-22 08:33N 32°23' W 090°60'3 2.5
2016-Aug-22 07:33N 32°21' W 090°59'3 2.9
2016-Aug-22 06:33N 32°21' W 090°55'3 3.2
2016-Aug-22 05:33N 32°17' W 090°56'4 4.0
2016-Aug-22 04:33N 32°14' W 090°59'4 4.5
2016-Aug-22 03:33N 32°10' W 091°00'3 3.5
2016-Aug-22 02:33N 32°07' W 091°03'3 3.1
2016-Aug-22 01:33N 32°07' W 091°07'5 2.3
2016-Aug-21 23:22N 32°03' W 091°04'  
2016-Aug-19 09:21N 31°58' W 091°11'7 8.4
2016-Aug-19 08:32N 32°01' W 091°04'11 5.6
2016-Aug-19 06:33N 32°11' W 090°60'8 8.0
2016-Aug-19 05:33N 32°18' W 090°55'6 5.9
2016-Aug-19 04:33N 32°22' W 091°00'6 6.4
2016-Aug-19 03:33N 32°27' W 091°05'8 8.3
2016-Aug-19 02:33N 32°35' W 091°08'  
Track history (hours):
 
Tides and Currents Weather Stations Pressure Air Temp Water Temp Dewpoint Dewpoint Depression Visibility Wind Speed Wind Dir Waves Ship Positions

Leviticus

Owner: Kirby Inland Marine, LP, Houston, TX. More information available from US FCC via Universal Licensing System and Coast Guard Vessel Documentation Center.

Last reported at 2016-Aug-22 12:03 UTC. Time now 2016-Sep-26 13:53 UTC.
Position N 32°35' W 091°07'.
Warning: this ship's position is 35 days out of date.

Length 12 m.

Type: Other ship. MMSI: 366996690.

Date/timePositionNaut miles runAvg speedWind from/ knotsBaromVisibWave heightAir tempDewpointWater temp
2016-Aug-22 12:03N 32°35' W 091°07'6 4.2
2016-Aug-22 10:32N 32°29' W 091°07'4 4.4
2016-Aug-22 09:33N 32°26' W 091°02'4 3.6
2016-Aug-22 08:33N 32°23' W 090°60'3 2.5
2016-Aug-22 07:33N 32°21' W 090°59'3 2.9
2016-Aug-22 06:33N 32°21' W 090°55'3 3.2
2016-Aug-22 05:33N 32°17' W 090°56'4 4.0
2016-Aug-22 04:33N 32°14' W 090°59'4 4.5
2016-Aug-22 03:33N 32°10' W 091°00'3 3.5
2016-Aug-22 02:33N 32°07' W 091°03'3 3.1
2016-Aug-22 01:33N 32°07' W 091°07'5 2.3
2016-Aug-21 23:22N 32°03' W 091°04'  
2016-Aug-19 09:21N 31°58' W 091°11'7 8.4
2016-Aug-19 08:32N 32°01' W 091°04'11 5.6
2016-Aug-19 06:33N 32°11' W 090°60'8 8.0
2016-Aug-19 05:33N 32°18' W 090°55'6 5.9
2016-Aug-19 04:33N 32°22' W 091°00'6 6.4
2016-Aug-19 03:33N 32°27' W 091°05'8 8.3
2016-Aug-19 02:33N 32°35' W 091°08'  

Dump ship's entire track history